sensor_id;sensor_type;location;lat;lon;timestamp;temperature;humidity
12421;DHT22;6275;43.688;1.408;2023-04-25T20:56:43;9.80;99.90
12421;DHT22;6275;43.688;1.408;2023-04-25T20:59:11;9.80;99.90
12421;DHT22;6275;43.688;1.408;2023-04-25T21:01:38;9.70;99.90
12421;DHT22;6275;43.688;1.408;2023-04-25T21:04:06;9.80;99.90
12421;DHT22;6275;43.688;1.408;2023-04-25T21:06:33;9.70;99.90
12421;DHT22;6275;43.688;1.408;2023-04-25T21:09:00;9.70;99.90
12421;DHT22;6275;43.688;1.408;2023-04-25T21:11:28;9.70;99.90
12421;DHT22;6275;43.688;1.408;2023-04-25T21:13:55;9.70;99.90
12421;DHT22;6275;43.688;1.408;2023-04-25T21:16:21;9.70;99.90
12421;DHT22;6275;43.688;1.408;2023-04-25T21:18:48;9.60;99.90
12421;DHT22;6275;43.688;1.408;2023-04-25T21:21:16;9.60;99.90
12421;DHT22;6275;43.688;1.408;2023-04-25T21:23:43;9.50;99.90
12421;DHT22;6275;43.688;1.408;2023-04-25T21:26:10;9.40;99.90
12421;DHT22;6275;43.688;1.408;2023-04-25T21:28:36;9.40;99.90
12421;DHT22;6275;43.688;1.408;2023-04-25T21:31:03;9.40;99.90
12421;DHT22;6275;43.688;1.408;2023-04-25T21:33:30;9.30;99.90
12421;DHT22;6275;43.688;1.408;2023-04-25T21:35:57;9.20;99.90
12421;DHT22;6275;43.688;1.408;2023-04-25T21:38:24;9.20;99.90
12421;DHT22;6275;43.688;1.408;2023-04-25T21:40:52;9.00;99.90
12421;DHT22;6275;43.688;1.408;2023-04-25T21:43:19;8.80;99.90
12421;DHT22;6275;43.688;1.408;2023-04-25T21:45:46;8.50;99.90
12421;DHT22;6275;43.688;1.408;2023-04-25T21:48:33;8.40;99.90
12421;DHT22;6275;43.688;1.408;2023-04-25T21:51:00;8.50;99.90
12421;DHT22;6275;43.688;1.408;2023-04-25T21:53:27;8.50;99.90
12421;DHT22;6275;43.688;1.408;2023-04-25T21:55:54;8.50;99.90
12421;DHT22;6275;43.688;1.408;2023-04-25T21:58:22;8.50;99.90
12421;DHT22;6275;43.688;1.408;2023-04-25T22:00:49;8.50;99.90
12421;DHT22;6275;43.688;1.408;2023-04-25T22:03:16;8.60;99.90
12421;DHT22;6275;43.688;1.408;2023-04-25T22:05:46;8.60;99.90
12421;DHT22;6275;43.688;1.408;2023-04-25T22:08:13;8.60;99.90
12421;DHT22;6275;43.688;1.408;2023-04-25T22:10:41;8.60;99.90
12421;DHT22;6275;43.688;1.408;2023-04-25T22:13:08;8.60;99.90
12421;DHT22;6275;43.688;1.408;2023-04-25T22:15:35;8.50;99.90
12421;DHT22;6275;43.688;1.408;2023-04-25T22:18:04;8.50;99.90
12421;DHT22;6275;43.688;1.408;2023-04-25T22:20:31;8.50;99.90
12421;DHT22;6275;43.688;1.408;2023-04-25T22:22:58;8.40;99.90
12421;DHT22;6275;43.688;1.408;2023-04-25T22:25:26;8.40;99.90
12421;DHT22;6275;43.688;1.408;2023-04-25T22:27:52;8.30;99.90
12421;DHT22;6275;43.688;1.408;2023-04-25T22:30:21;8.30;99.90
12421;DHT22;6275;43.688;1.408;2023-04-25T22:32:48;8.30;99.90
12421;DHT22;6275;43.688;1.408;2023-04-25T22:35:15;8.20;99.90
12421;DHT22;6275;43.688;1.408;2023-04-25T22:37:42;8.20;99.90
12421;DHT22;6275;43.688;1.408;2023-04-25T22:40:09;8.20;99.90
12421;DHT22;6275;43.688;1.408;2023-04-25T22:42:39;8.10;99.90
12421;DHT22;6275;43.688;1.408;2023-04-25T22:45:07;8.10;99.90
12421;DHT22;6275;43.688;1.408;2023-04-25T22:47:36;8.10;99.90
12421;DHT22;6275;43.688;1.408;2023-04-25T22:50:04;8.10;99.90
12421;DHT22;6275;43.688;1.408;2023-04-25T22:52:33;8.00;99.90
12421;DHT22;6275;43.688;1.408;2023-04-25T22:55:01;8.00;99.90
12421;DHT22;6275;43.688;1.408;2023-04-25T22:57:31;8.00;99.90
12421;DHT22;6275;43.688;1.408;2023-04-25T22:59:58;7.90;99.90
12421;DHT22;6275;43.688;1.408;2023-04-25T23:02:25;7.90;99.90
12421;DHT22;6275;43.688;1.408;2023-04-25T23:04:53;7.90;99.90
12421;DHT22;6275;43.688;1.408;2023-04-25T23:07:20;7.90;99.90
12421;DHT22;6275;43.688;1.408;2023-04-25T23:09:47;7.80;99.90
12421;DHT22;6275;43.688;1.408;2023-04-25T23:12:17;7.80;99.90
12421;DHT22;6275;43.688;1.408;2023-04-25T23:14:50;7.80;99.90
12421;DHT22;6275;43.688;1.408;2023-04-25T23:17:17;7.80;99.90
12421;DHT22;6275;43.688;1.408;2023-04-25T23:19:44;7.80;99.90
12421;DHT22;6275;43.688;1.408;2023-04-25T23:22:12;7.80;99.90
12421;DHT22;6275;43.688;1.408;2023-04-25T23:24:39;7.70;99.90
12421;DHT22;6275;43.688;1.408;2023-04-25T23:27:06;7.50;99.90
12421;DHT22;6275;43.688;1.408;2023-04-25T23:29:33;7.30;99.90
12421;DHT22;6275;43.688;1.408;2023-04-25T23:32:00;7.20;99.90
12421;DHT22;6275;43.688;1.408;2023-04-25T23:34:31;7.00;99.90
12421;DHT22;6275;43.688;1.408;2023-04-25T23:36:59;6.90;99.90
12421;DHT22;6275;43.688;1.408;2023-04-25T23:39:27;6.90;99.90
12421;DHT22;6275;43.688;1.408;2023-04-25T23:41:54;6.80;99.90
12421;DHT22;6275;43.688;1.408;2023-04-25T23:44:21;6.80;99.90
12421;DHT22;6275;43.688;1.408;2023-04-25T23:46:48;6.80;99.90
12421;DHT22;6275;43.688;1.408;2023-04-25T23:49:16;6.90;99.90
12421;DHT22;6275;43.688;1.408;2023-04-25T23:51:42;6.80;99.90
12421;DHT22;6275;43.688;1.408;2023-04-25T23:54:09;6.80;99.90
12421;DHT22;6275;43.688;1.408;2023-04-25T23:56:36;6.80;99.90
12421;DHT22;6275;43.688;1.408;2023-04-25T23:59:03;6.80;99.90
